Time;durP1;ratioP1;P1;durP2;ratioP2;P2;SDS_P1;SDS_P2;PMS_P1;PMS_P2;Temp;Humidity;BMP_temperature;BMP_pressure;BME280_temperature;BME280_humidity;BME280_pressure;Samples;Min_cycle;Max_cycle;Signal;HPM_P1;HPM_P2
2022/07/10 00:00:31;;;;;;;8.60;1.05;;;14.00;99.90;;;;;;5043438;28;20037;-82
2022/07/10 00:02:57;;;;;;;5.93;1.10;;;13.90;99.90;;;;;;5043351;28;20135;-82
2022/07/10 00:05:24;;;;;;;7.97;1.08;;;13.80;99.90;;;;;;5059727;28;20068;-82
2022/07/10 00:07:51;;;;;;;4.93;1.08;;;14.00;99.90;;;;;;5028504;28;20158;-81
2022/07/10 00:10:18;;;;;;;8.38;1.20;;;14.00;99.90;;;;;;5045640;28;20108;-81
2022/07/10 00:12:44;;;;;;;9.80;1.20;;;14.00;99.90;;;;;;5040807;28;20511;-84
2022/07/10 00:15:10;;;;;;;6.22;1.30;;;14.00;99.90;;;;;;5042775;28;20052;-81
2022/07/10 00:17:36;;;;;;;7.40;1.15;;;14.10;99.90;;;;;;5046297;28;20032;-81
2022/07/10 00:20:02;;;;;;;4.53;1.00;;;14.00;99.90;;;;;;5042498;28;20604;-81
2022/07/10 00:22:28;;;;;;;7.15;1.38;;;14.10;99.90;;;;;;5045034;28;20041;-81
2022/07/10 00:24:53;;;;;;;5.82;1.23;;;14.10;99.90;;;;;;5041899;28;20044;-81
2022/07/10 00:27:19;;;;;;;7.00;1.25;;;14.10;99.90;;;;;;5044742;28;20029;-81
2022/07/10 00:29:45;;;;;;;7.28;1.27;;;14.10;99.90;;;;;;5057868;28;20479;-80
2022/07/10 00:32:11;;;;;;;8.45;2.00;;;14.10;99.90;;;;;;5044037;28;20033;-81
2022/07/10 00:34:38;;;;;;;6.13;1.17;;;14.00;99.90;;;;;;5041981;28;20037;-80
2022/07/10 00:37:04;;;;;;;5.70;1.33;;;14.00;99.90;;;;;;5040895;28;20041;-81
2022/07/10 00:39:30;;;;;;;5.22;1.52;;;14.00;99.90;;;;;;5041090;28;20091;-80
2022/07/10 00:42:06;;;;;;;7.53;1.60;;;14.00;99.90;;;;;;5044485;28;20045;-82
2022/07/10 00:44:31;;;;;;;7.80;1.50;;;13.90;99.90;;;;;;5055872;28;20038;-82
2022/07/10 00:46:57;;;;;;;13.32;1.80;;;13.90;99.90;;;;;;5044859;28;20041;-81
2022/07/10 00:49:22;;;;;;;6.63;1.33;;;14.00;99.90;;;;;;5047064;28;20044;-80
2022/07/10 00:51:48;;;;;;;9.10;1.42;;;14.00;99.90;;;;;;5044925;28;20089;-81
2022/07/10 00:54:13;;;;;;;7.18;1.38;;;14.00;99.90;;;;;;5040767;28;20124;-80
2022/07/10 00:56:39;;;;;;;10.07;1.55;;;14.00;99.90;;;;;;5043003;28;20486;-80
2022/07/10 00:59:05;;;;;;;7.13;1.70;;;14.00;99.90;;;;;;5044794;28;20115;-80
2022/07/10 01:01:32;;;;;;;7.65;1.48;;;14.00;99.90;;;;;;5026917;28;20040;-80
2022/07/10 01:03:58;;;;;;;8.70;1.40;;;14.00;99.90;;;;;;5045390;28;20123;-82
2022/07/10 01:06:23;;;;;;;8.30;1.75;;;14.00;99.90;;;;;;5045764;28;20029;-82
2022/07/10 01:08:49;;;;;;;10.65;1.70;;;14.00;99.90;;;;;;5028072;28;20044;-81
2022/07/10 01:11:15;;;;;;;8.95;1.40;;;14.00;99.90;;;;;;5042230;28;20065;-80
2022/07/10 01:13:44;;;;;;;10.50;2.00;;;13.90;99.90;;;;;;5042842;28;20033;-82
2022/07/10 01:16:11;;;;;;;8.85;1.40;;;13.90;99.90;;;;;;5041109;28;20122;-81
2022/07/10 01:18:36;;;;;;;11.82;1.50;;;13.80;99.90;;;;;;5041721;28;20041;-81
2022/07/10 01:21:02;;;;;;;10.95;2.22;;;13.90;99.90;;;;;;5044010;28;20376;-81
2022/07/10 01:23:28;;;;;;;9.63;1.55;;;13.90;99.90;;;;;;5043100;28;20487;-80
2022/07/10 01:25:53;;;;;;;15.10;1.80;;;13.80;99.90;;;;;;5040241;28;20047;-82
2022/07/10 01:28:20;;;;;;;7.85;1.23;;;13.80;99.90;;;;;;5025450;28;20041;-81
2022/07/10 01:30:46;;;;;;;9.38;1.75;;;13.70;99.90;;;;;;5040550;28;20036;-82
2022/07/10 01:33:12;;;;;;;6.75;1.30;;;13.70;99.90;;;;;;5041689;28;20087;-79
2022/07/10 01:35:38;;;;;;;8.70;1.35;;;13.60;99.90;;;;;;5041604;28;20032;-80
2022/07/10 01:38:04;;;;;;;6.15;1.35;;;13.60;99.90;;;;;;5042417;28;20486;-81
2022/07/10 01:40:30;;;;;;;7.45;1.42;;;13.60;99.90;;;;;;5042728;28;20052;-80
2022/07/10 01:42:55;;;;;;;6.50;0.98;;;13.60;99.90;;;;;;5041762;28;20495;-81
2022/07/10 01:45:21;;;;;;;5.78;1.23;;;13.60;99.90;;;;;;5041062;28;20033;-81
2022/07/10 01:47:46;;;;;;;7.78;1.40;;;13.60;99.90;;;;;;5041713;28;20044;-80
2022/07/10 01:50:12;;;;;;;8.27;1.13;;;13.50;99.90;;;;;;5055303;28;20038;-81
2022/07/10 01:52:38;;;;;;;10.20;1.63;;;13.50;99.90;;;;;;5066186;28;20037;-82
2022/07/10 01:55:04;;;;;;;7.70;1.10;;;13.50;99.90;;;;;;5042346;28;20071;-81
2022/07/10 01:57:30;;;;;;;5.75;1.35;;;13.50;99.90;;;;;;5040723;28;20033;-81
2022/07/10 01:59:56;;;;;;;6.55;1.10;;;13.40;99.90;;;;;;5042193;28;20048;-83
2022/07/10 02:02:21;;;;;;;6.90;1.20;;;13.40;99.90;;;;;;5042815;28;20037;-82
2022/07/10 02:04:47;;;;;;;6.97;1.10;;;13.30;99.90;;;;;;5045800;28;20527;-81
2022/07/10 02:07:18;;;;;;;4.65;1.17;;;13.30;99.90;;;;;;5043007;28;20423;-80
2022/07/10 02:09:45;;;;;;;9.00;1.08;;;13.30;99.90;;;;;;5025530;28;20111;-82
2022/07/10 02:12:12;;;;;;;5.72;1.33;;;13.20;99.90;;;;;;5041589;28;20423;-81
2022/07/10 02:14:39;;;;;;;4.97;0.93;;;13.20;99.90;;;;;;5041051;28;20033;-81
2022/07/10 02:17:05;;;;;;;7.07;1.60;;;13.30;99.90;;;;;;5041128;28;20045;-81
2022/07/10 02:19:31;;;;;;;10.35;1.25;;;13.20;99.90;;;;;;5055074;28;20516;-83
2022/07/10 02:21:58;;;;;;;7.97;1.27;;;13.20;99.90;;;;;;5042861;28;20033;-82
2022/07/10 02:24:23;;;;;;;7.72;1.05;;;13.20;99.90;;;;;;5041222;28;20530;-81
2022/07/10 02:26:49;;;;;;;5.20;1.08;;;13.20;99.90;;;;;;5025871;28;20044;-80
2022/07/10 02:29:15;;;;;;;7.22;1.00;;;13.10;99.90;;;;;;5042023;28;20064;-80
2022/07/10 02:31:41;;;;;;;9.57;1.63;;;13.10;99.90;;;;;;5025761;28;20043;-81
2022/07/10 02:34:11;;;;;;;7.40;1.20;;;13.00;99.90;;;;;;5024667;28;20037;-82
2022/07/10 02:36:38;;;;;;;5.70;1.00;;;13.00;99.90;;;;;;5026399;28;20044;-81
2022/07/10 02:39:07;;;;;;;6.55;1.20;;;13.00;99.90;;;;;;5037560;28;20492;-82
2022/07/10 02:41:33;;;;;;;7.00;1.20;;;13.00;99.90;;;;;;5038457;28;20121;-83
2022/07/10 02:43:58;;;;;;;7.05;1.10;;;13.00;99.90;;;;;;5042631;28;20129;-80
2022/07/10 02:46:25;;;;;;;6.40;0.98;;;13.00;99.90;;;;;;5041691;28;20029;-81
2022/07/10 02:48:50;;;;;;;5.95;1.10;;;13.00;99.90;;;;;;5042853;28;20048;-81
2022/07/10 02:51:16;;;;;;;5.57;1.13;;;13.00;99.90;;;;;;5041635;28;20487;-81
2022/07/10 02:53:42;;;;;;;6.32;1.20;;;13.00;99.90;;;;;;5041918;28;20033;-81
2022/07/10 02:56:07;;;;;;;4.93;1.17;;;12.90;99.90;;;;;;5043942;28;20102;-82
2022/07/10 02:58:33;;;;;;;8.40;1.40;;;13.00;99.90;;;;;;5045252;28;20133;-82
2022/07/10 03:00:59;;;;;;;7.57;1.38;;;13.00;99.90;;;;;;5045496;28;20080;-82
2022/07/10 03:03:25;;;;;;;6.32;1.00;;;13.00;99.90;;;;;;5046670;28;20060;-81
2022/07/10 03:05:50;;;;;;;7.50;1.35;;;13.00;99.90;;;;;;5049037;28;20037;-80
2022/07/10 03:08:16;;;;;;;7.82;1.02;;;13.10;99.90;;;;;;5029117;28;20034;-81
2022/07/10 03:10:41;;;;;;;6.72;1.30;;;13.10;99.90;;;;;;5046439;28;20445;-84
2022/07/10 03:13:07;;;;;;;6.25;1.30;;;13.10;99.90;;;;;;5043063;28;20116;-82
2022/07/10 03:15:33;;;;;;;5.70;0.95;;;13.20;99.90;;;;;;5045052;28;20037;-81
2022/07/10 03:17:59;;;;;;;9.40;1.10;;;13.30;99.90;;;;;;5044406;28;20063;-81
2022/07/10 03:20:24;;;;;;;4.72;1.13;;;13.30;99.90;;;;;;5045753;28;20043;-83
2022/07/10 03:22:50;;;;;;;8.70;1.02;;;13.30;99.90;;;;;;5046564;28;20049;-83
2022/07/10 03:25:16;;;;;;;5.55;1.17;;;13.40;99.90;;;;;;5045322;28;20133;-81
2022/07/10 03:27:41;;;;;;;5.65;1.25;;;13.40;99.90;;;;;;5044828;28;20051;-80
2022/07/10 03:30:08;;;;;;;9.48;1.00;;;13.50;99.90;;;;;;5045265;28;20161;-81
2022/07/10 03:32:33;;;;;;;11.90;1.45;;;13.50;99.90;;;;;;5045756;28;20028;-81
2022/07/10 03:34:59;;;;;;;7.65;1.15;;;13.60;99.90;;;;;;5028019;28;20033;-81
2022/07/10 03:37:25;;;;;;;6.35;1.30;;;13.60;99.90;;;;;;5044804;28;20055;-81
2022/07/10 03:39:51;;;;;;;9.65;1.10;;;13.70;99.90;;;;;;5045571;28;20426;-81
2022/07/10 03:42:17;;;;;;;5.32;1.05;;;13.70;99.90;;;;;;5044099;28;20447;-82
2022/07/10 03:44:42;;;;;;;6.60;1.30;;;13.70;99.90;;;;;;5044394;28;20044;-82
2022/07/10 03:47:08;;;;;;;8.90;1.50;;;13.70;99.90;;;;;;5044492;28;20067;-81
2022/07/10 03:49:33;;;;;;;7.45;1.40;;;13.80;99.90;;;;;;5045292;28;20407;-81
2022/07/10 03:52:00;;;;;;;7.65;1.42;;;13.80;99.90;;;;;;5046913;28;20128;-83
2022/07/10 03:54:26;;;;;;;8.05;1.55;;;13.80;99.90;;;;;;5046023;28;20475;-79
2022/07/10 03:59:37;;;;;;;;;;;13.90;99.90;;;;;;5060086;28;20518;-82
2022/07/10 04:02:03;;;;;;;8.45;1.52;;;14.00;99.90;;;;;;5030579;28;19917;-80
2022/07/10 04:04:28;;;;;;;6.20;1.38;;;14.10;99.90;;;;;;5047498;28;20281;-80
2022/07/10 04:06:54;;;;;;;7.72;1.27;;;14.20;99.90;;;;;;5043988;28;20414;-81
2022/07/10 04:09:20;;;;;;;10.93;1.65;;;14.20;99.90;;;;;;5041440;28;20045;-81
2022/07/10 04:11:45;;;;;;;9.18;1.50;;;14.30;99.90;;;;;;5043532;28;20115;-81
2022/07/10 04:14:11;;;;;;;12.10;1.58;;;14.30;99.90;;;;;;5044002;28;20033;-80
2022/07/10 04:16:36;;;;;;;9.55;1.70;;;14.40;99.90;;;;;;5042484;28;20083;-80
2022/07/10 04:19:02;;;;;;;11.95;1.50;;;14.40;99.90;;;;;;5045835;28;20039;-80
2022/07/10 04:21:28;;;;;;;10.13;1.80;;;14.40;99.90;;;;;;5043626;28;20037;-82
2022/07/10 04:23:53;;;;;;;10.85;1.50;;;14.50;99.90;;;;;;5043078;28;20407;-80
2022/07/10 04:26:19;;;;;;;6.90;1.30;;;14.50;99.90;;;;;;5043232;28;20029;-82
2022/07/10 04:28:44;;;;;;;6.47;1.48;;;14.50;99.90;;;;;;5043038;28;20041;-81
2022/07/10 04:31:10;;;;;;;7.10;1.58;;;14.60;99.90;;;;;;5042741;28;20037;-81
2022/07/10 04:33:36;;;;;;;8.38;1.58;;;14.60;99.90;;;;;;5045991;28;20037;-82
2022/07/10 04:36:01;;;;;;;8.00;1.65;;;14.60;99.90;;;;;;5041650;28;20039;-81
2022/07/10 04:38:27;;;;;;;8.40;1.80;;;14.60;99.90;;;;;;5045038;28;20040;-81
2022/07/10 04:40:52;;;;;;;8.90;1.70;;;14.60;99.90;;;;;;5042302;28;20036;-81
2022/07/10 04:43:18;;;;;;;8.88;1.67;;;14.60;99.90;;;;;;5041722;28;20037;-81
2022/07/10 04:45:45;;;;;;;7.80;1.67;;;14.70;99.90;;;;;;5041717;28;20492;-81
2022/07/10 04:48:10;;;;;;;11.23;1.88;;;14.70;99.90;;;;;;5053432;28;20407;-81
2022/07/10 04:50:36;;;;;;;9.93;1.70;;;14.70;99.90;;;;;;5041355;28;20044;-81
2022/07/10 04:53:01;;;;;;;13.23;1.98;;;14.80;99.90;;;;;;5041948;28;20044;-82
2022/07/10 04:55:27;;;;;;;12.88;1.55;;;14.80;99.90;;;;;;5028151;28;20044;-83
2022/07/10 04:57:52;;;;;;;12.77;1.95;;;14.90;99.90;;;;;;5059553;28;20044;-81
2022/07/10 05:00:18;;;;;;;8.15;1.75;;;14.90;99.90;;;;;;5045151;28;20403;-80
2022/07/10 05:02:44;;;;;;;10.75;2.20;;;15.00;99.90;;;;;;5028975;28;20064;-81
2022/07/10 05:05:09;;;;;;;11.10;1.98;;;15.00;99.90;;;;;;5045268;28;20107;-80
2022/07/10 05:07:35;;;;;;;12.52;2.00;;;15.00;99.90;;;;;;5042310;28;20503;-83
2022/07/10 05:10:01;;;;;;;12.40;1.90;;;15.00;99.90;;;;;;5041505;28;20029;-81
2022/07/10 05:12:26;;;;;;;11.02;1.60;;;15.10;99.90;;;;;;5025648;28;20033;-80
2022/07/10 05:14:52;;;;;;;11.45;1.58;;;15.00;99.90;;;;;;5040665;28;20607;-80
2022/07/10 05:17:18;;;;;;;10.45;1.67;;;15.10;99.90;;;;;;5042219;28;20048;-80
2022/07/10 05:19:43;;;;;;;8.63;1.50;;;15.10;99.90;;;;;;5040585;28;20056;-80
2022/07/10 05:22:09;;;;;;;10.80;1.58;;;15.10;99.90;;;;;;5034507;28;20072;-82
2022/07/10 05:24:35;;;;;;;9.50;1.60;;;15.10;99.90;;;;;;5041954;28;20087;-81
2022/07/10 05:27:01;;;;;;;10.23;1.60;;;15.20;99.90;;;;;;5028308;28;20044;-82
2022/07/10 05:29:26;;;;;;;8.98;1.63;;;15.20;99.90;;;;;;5043300;28;20461;-81
2022/07/10 05:31:52;;;;;;;9.13;1.70;;;15.20;99.90;;;;;;5042901;28;20033;-81
2022/07/10 05:34:18;;;;;;;5.50;1.45;;;15.30;99.90;;;;;;5044116;28;20406;-80
2022/07/10 05:36:43;;;;;;;11.88;1.92;;;15.30;99.90;;;;;;5043038;28;20052;-80
2022/07/10 05:39:09;;;;;;;7.70;1.52;;;15.30;99.90;;;;;;5043473;28;20513;-81
2022/07/10 05:41:34;;;;;;;9.93;1.67;;;15.40;99.90;;;;;;5041543;28;20108;-82
2022/07/10 05:44:00;;;;;;;9.07;1.80;;;15.40;99.90;;;;;;5027338;28;20055;-81
2022/07/10 05:46:26;;;;;;;8.05;1.77;;;15.40;99.90;;;;;;5043096;28;20029;-81
2022/07/10 05:48:51;;;;;;;10.57;1.52;;;15.40;99.90;;;;;;5026023;28;20476;-80
2022/07/10 05:51:17;;;;;;;11.90;1.90;;;15.40;99.90;;;;;;5041898;28;20040;-81
2022/07/10 05:53:43;;;;;;;8.82;1.70;;;15.40;99.90;;;;;;5043198;28;20119;-82
2022/07/10 05:56:08;;;;;;;7.75;1.45;;;15.40;99.90;;;;;;5042192;28;20048;-80
2022/07/10 05:58:34;;;;;;;12.27;2.25;;;15.30;99.90;;;;;;5040515;28;20049;-81
2022/07/10 06:01:00;;;;;;;8.63;1.60;;;15.30;99.90;;;;;;5045575;28;20075;-79
2022/07/10 06:03:26;;;;;;;7.90;1.30;;;15.30;99.90;;;;;;5042789;28;20049;-80
2022/07/10 06:05:51;;;;;;;7.38;1.67;;;15.30;99.90;;;;;;5044195;28;20048;-84
2022/07/10 06:08:18;;;;;;;6.22;1.40;;;15.20;99.90;;;;;;5041403;28;20041;-80
2022/07/10 06:10:43;;;;;;;9.07;1.50;;;15.20;99.90;;;;;;5042237;28;20123;-82
2022/07/10 06:13:13;;;;;;;9.15;1.75;;;15.20;99.90;;;;;;5042238;28;20127;-81
2022/07/10 06:15:39;;;;;;;10.57;1.52;;;15.20;99.90;;;;;;5041594;28;20041;-81
2022/07/10 06:18:04;;;;;;;11.73;1.75;;;15.20;99.90;;;;;;5043335;28;20043;-82
2022/07/10 06:20:31;;;;;;;8.35;2.00;;;15.20;99.90;;;;;;5042594;28;20429;-81
2022/07/10 06:22:57;;;;;;;10.10;1.77;;;15.20;99.90;;;;;;5042549;28;20121;-80
2022/07/10 06:25:22;;;;;;;8.70;1.42;;;15.30;99.90;;;;;;5046572;28;20037;-79
2022/07/10 06:27:48;;;;;;;13.50;1.42;;;15.40;99.90;;;;;;5033394;28;20037;-81
2022/07/10 06:30:14;;;;;;;6.93;1.48;;;15.40;99.90;;;;;;5051965;28;20403;-80
2022/07/10 06:32:39;;;;;;;7.47;1.92;;;15.50;99.90;;;;;;5043425;28;20077;-80
2022/07/10 06:35:07;;;;;;;9.35;1.70;;;15.50;99.90;;;;;;5045465;28;20043;-79
2022/07/10 06:37:32;;;;;;;5.03;1.55;;;15.60;99.90;;;;;;5045603;28;21764;-82
2022/07/10 06:39:58;;;;;;;7.85;1.50;;;15.70;99.90;;;;;;5045785;28;20064;-81
2022/07/10 06:42:24;;;;;;;10.25;1.63;;;15.80;99.90;;;;;;5045619;28;20036;-80
2022/07/10 06:44:50;;;;;;;7.00;1.52;;;15.90;99.90;;;;;;5027399;28;20103;-83
2022/07/10 06:50:07;;;;;;;5.50;1.40;;;16.00;99.90;;;;;;5046464;28;20924;-81
2022/07/10 06:52:33;;;;;;;6.78;1.52;;;16.00;99.90;;;;;;5046163;28;20128;-80
2022/07/10 06:55:00;;;;;;;5.00;1.23;;;16.00;99.90;;;;;;5044074;28;20044;-82
2022/07/10 06:57:26;;;;;;;5.65;0.82;;;16.00;99.90;;;;;;5045216;28;20045;-82
2022/07/10 06:59:52;;;;;;;6.65;1.10;;;16.00;99.90;;;;;;5046790;28;20044;-81
2022/07/10 07:02:18;;;;;;;6.13;1.10;;;16.10;99.90;;;;;;5051413;28;20495;-81
2022/07/10 07:04:45;;;;;;;3.72;0.95;;;16.00;99.90;;;;;;5041335;28;20057;-81
2022/07/10 07:07:11;;;;;;;4.00;1.08;;;16.00;99.90;;;;;;5040237;28;20082;-81
2022/07/10 07:09:37;;;;;;;4.40;1.50;;;16.00;99.90;;;;;;5044988;28;20542;-79
2022/07/10 07:12:03;;;;;;;5.03;1.27;;;16.00;99.90;;;;;;5033889;28;20044;-80
2022/07/10 07:14:29;;;;;;;8.93;1.50;;;15.90;99.90;;;;;;5042551;28;20041;-81
2022/07/10 07:17:01;;;;;;;5.80;1.10;;;15.70;99.90;;;;;;5029543;28;20479;-80
2022/07/10 07:23:09;;;;;;;9.63;1.60;;;15.50;99.90;;;;;;5058167;28;20055;-81
2022/07/10 07:25:06;;;;;;;5.13;1.13;;;15.40;99.90;;;;;;5057568;28;21236;-82
2022/07/10 07:27:34;;;;;;;6.50;1.45;;;15.50;99.90;;;;;;5043769;28;20029;-82
2022/07/10 07:30:06;;;;;;;6.32;1.20;;;15.60;99.90;;;;;;5041501;28;20041;-80
2022/07/10 07:32:32;;;;;;;4.85;1.20;;;15.60;99.90;;;;;;5046248;28;20120;-79
2022/07/10 07:34:58;;;;;;;5.35;1.63;;;15.50;99.90;;;;;;5027014;28;20419;-80
2022/07/10 07:37:33;;;;;;;6.20;1.10;;;15.50;99.90;;;;;;5046187;28;20033;-82
2022/07/10 07:39:59;;;;;;;6.10;1.30;;;15.40;99.90;;;;;;5044877;28;21842;-82
2022/07/10 07:42:24;;;;;;;9.23;1.50;;;15.40;99.90;;;;;;5027548;28;20040;-81
2022/07/10 07:44:50;;;;;;;4.25;1.33;;;15.40;99.90;;;;;;5042518;28;20037;-81
2022/07/10 07:47:15;;;;;;;7.65;1.23;;;15.50;99.90;;;;;;5046139;28;20055;-81
2022/07/10 07:49:41;;;;;;;6.97;1.10;;;15.70;99.90;;;;;;5043758;28;20499;-82
2022/07/10 07:52:07;;;;;;;5.53;1.05;;;15.80;99.90;;;;;;5045576;28;20446;-82
2022/07/10 07:54:32;;;;;;;8.45;1.45;;;16.00;99.90;;;;;;5045238;28;20599;-81
2022/07/10 07:56:58;;;;;;;7.30;1.52;;;16.10;99.90;;;;;;5043964;28;20045;-81
2022/07/10 07:59:23;;;;;;;9.38;1.58;;;16.30;99.90;;;;;;5048623;28;20045;-81
2022/07/10 08:01:49;;;;;;;6.15;0.93;;;16.30;99.90;;;;;;5046782;28;20048;-83
2022/07/10 08:04:14;;;;;;;5.60;1.42;;;16.30;99.90;;;;;;5032121;28;20132;-82
2022/07/10 08:06:40;;;;;;;10.00;1.20;;;16.20;99.90;;;;;;5034088;28;20462;-83
2022/07/10 08:09:05;;;;;;;8.23;1.48;;;16.30;99.90;;;;;;5033437;28;20575;-82
2022/07/10 08:11:31;;;;;;;6.05;1.10;;;16.20;99.90;;;;;;5033749;28;20519;-81
2022/07/10 08:13:57;;;;;;;4.72;1.20;;;16.20;99.90;;;;;;5032905;28;20076;-81
2022/07/10 08:16:22;;;;;;;7.97;1.50;;;16.10;99.90;;;;;;5035094;28;20407;-82
2022/07/10 08:18:48;;;;;;;6.78;1.10;;;16.20;99.90;;;;;;5031343;28;20030;-82
2022/07/10 08:21:13;;;;;;;3.67;0.90;;;16.40;99.90;;;;;;5035165;28;20411;-82
2022/07/10 08:23:39;;;;;;;8.18;1.10;;;16.40;99.90;;;;;;5032714;28;20668;-82
2022/07/10 08:26:04;;;;;;;3.03;0.90;;;16.40;99.90;;;;;;5030882;28;20049;-81
2022/07/10 08:28:30;;;;;;;2.80;0.50;;;16.50;99.90;;;;;;5033715;28;20082;-80
2022/07/10 08:30:55;;;;;;;2.47;0.52;;;16.50;99.90;;;;;;5042426;28;20996;-79
2022/07/10 08:33:21;;;;;;;1.30;0.30;;;16.50;99.90;;;;;;5047701;28;20049;-83
2022/07/10 08:35:47;;;;;;;1.65;0.52;;;16.50;99.90;;;;;;5027749;28;20041;-80
2022/07/10 08:38:12;;;;;;;1.75;0.60;;;16.40;99.90;;;;;;5029239;28;20037;-82
2022/07/10 08:40:39;;;;;;;4.47;0.70;;;16.30;99.90;;;;;;5029958;28;20436;-81
2022/07/10 08:43:05;;;;;;;3.97;0.70;;;16.20;99.90;;;;;;5030680;28;20141;-81
2022/07/10 08:45:35;;;;;;;3.75;1.10;;;16.40;99.90;;;;;;5029684;28;20053;-80
2022/07/10 08:48:06;;;;;;;4.18;0.70;;;16.20;99.90;;;;;;5031614;28;20072;-81
2022/07/10 08:50:34;;;;;;;3.88;0.98;;;16.20;99.90;;;;;;5015952;28;20041;-80
2022/07/10 08:53:16;;;;;;;5.63;0.85;;;16.10;99.90;;;;;;5032133;28;20125;-81
2022/07/10 08:55:42;;;;;;;5.20;0.98;;;16.00;99.90;;;;;;5014747;28;20596;-80
2022/07/10 08:58:12;;;;;;;9.38;1.55;;;15.90;99.90;;;;;;5031147;28;20042;-80
2022/07/10 09:00:38;;;;;;;6.70;1.35;;;16.10;99.90;;;;;;5031443;28;20041;-79
2022/07/10 09:03:03;;;;;;;4.65;1.10;;;16.20;99.90;;;;;;5031830;28;20047;-79
2022/07/10 09:05:29;;;;;;;3.60;1.10;;;16.30;99.90;;;;;;5030886;28;20037;-80
2022/07/10 09:07:56;;;;;;;4.70;1.67;;;16.50;99.90;;;;;;5031875;28;20046;-81
2022/07/10 09:10:24;;;;;;;3.97;1.23;;;16.70;99.90;;;;;;5031572;28;20403;-79
2022/07/10 09:12:54;;;;;;;4.60;1.40;;;16.70;99.90;;;;;;5031797;28;20044;-81
2022/07/10 09:15:22;;;;;;;6.07;1.75;;;16.70;99.90;;;;;;5031486;28;20094;-79
2022/07/10 09:17:52;;;;;;;3.50;1.17;;;16.60;99.90;;;;;;5031706;28;20056;-82
2022/07/10 09:20:46;;;;;;;9.52;1.40;;;16.40;99.90;;;;;;5032009;28;20045;-79
2022/07/10 09:23:22;;;;;;;4.63;1.40;;;16.20;99.90;;;;;;5031215;28;20050;-79
2022/07/10 09:25:50;;;;;;;5.35;1.50;;;16.00;99.90;;;;;;5030878;28;20385;-79
2022/07/10 09:28:18;;;;;;;5.40;1.20;;;15.60;99.90;;;;;;5031216;28;20499;-79
2022/07/10 09:30:44;;;;;;;5.22;1.23;;;15.50;99.90;;;;;;5014955;28;20033;-80
2022/07/10 09:33:27;;;;;;;5.00;1.30;;;15.40;99.90;;;;;;5031704;28;20067;-79
2022/07/10 09:36:04;;;;;;;3.95;1.60;;;15.20;99.90;;;;;;5031134;28;20504;-79
2022/07/10 09:38:42;;;;;;;3.97;1.50;;;15.20;99.90;;;;;;5032196;28;20232;-78
2022/07/10 09:41:18;;;;;;;5.13;1.60;;;15.10;99.90;;;;;;5047521;28;20135;-78
2022/07/10 09:43:48;;;;;;;5.20;1.60;;;15.10;99.90;;;;;;5040268;28;20049;-79
2022/07/10 09:46:17;;;;;;;6.75;1.92;;;15.20;99.90;;;;;;5041046;28;20060;-78
2022/07/10 09:48:43;;;;;;;3.92;1.83;;;15.20;99.90;;;;;;5042976;28;20033;-78
2022/07/10 09:51:10;;;;;;;5.25;2.00;;;15.40;99.90;;;;;;5041632;28;20048;-78
2022/07/10 09:53:43;;;;;;;6.95;2.05;;;15.20;99.90;;;;;;5047059;28;20061;-78
2022/07/10 09:56:11;;;;;;;5.80;1.88;;;15.30;99.90;;;;;;5033592;28;20110;-79
2022/07/10 09:58:37;;;;;;;7.10;1.90;;;15.40;99.90;;;;;;5025946;28;20060;-79
2022/07/10 10:01:07;;;;;;;4.95;2.00;;;15.50;99.90;;;;;;5040872;28;20045;-80
2022/07/10 10:03:38;;;;;;;7.18;2.30;;;15.50;99.90;;;;;;5030368;28;20037;-78
2022/07/10 10:06:18;;;;;;;6.40;1.90;;;15.60;99.90;;;;;;5044786;28;20045;-78
2022/07/10 10:09:20;;;;;;;7.65;2.15;;;15.60;99.90;;;;;;5043154;28;20398;-79
2022/07/10 10:11:47;;;;;;;5.38;2.10;;;15.70;99.90;;;;;;5063087;28;20514;-79
2022/07/10 10:14:15;;;;;;;8.30;2.28;;;15.80;99.90;;;;;;5045439;28;20073;-80
2022/07/10 10:16:44;;;;;;;6.97;2.30;;;16.00;99.90;;;;;;5043376;28;20030;-80
2022/07/10 10:21:56;;;;;;;6.85;2.42;;;16.20;99.90;;;;;;5036130;28;20124;-79
2022/07/10 10:24:23;;;;;;;5.13;2.05;;;16.10;99.90;;;;;;5033069;28;20033;-80
2022/07/10 10:26:49;;;;;;;6.60;2.20;;;16.10;99.90;;;;;;5042959;28;20040;-79
2022/07/10 10:29:15;;;;;;;7.90;2.10;;;16.20;99.90;;;;;;5043204;28;20192;-79
2022/07/10 10:31:42;;;;;;;9.45;2.60;;;16.30;99.90;;;;;;5027765;28;20495;-80
2022/07/10 10:34:07;;;;;;;6.25;2.38;;;16.40;99.90;;;;;;5045591;28;20410;-80
2022/07/10 10:36:36;;;;;;;6.35;2.38;;;16.50;99.90;;;;;;5021812;28;20037;-79
2022/07/10 10:39:02;;;;;;;10.50;2.00;;;16.80;99.90;;;;;;5040306;28;20067;-78
2022/07/10 10:41:27;;;;;;;7.68;2.25;;;16.90;99.90;;;;;;5039576;28;20118;-78
2022/07/10 10:44:13;;;;;;;6.57;2.08;;;17.00;99.90;;;;;;5045809;28;20151;-79
2022/07/10 10:46:53;;;;;;;6.18;2.10;;;16.80;99.90;;;;;;5042190;28;20691;-80
2022/07/10 10:49:19;;;;;;;7.50;2.13;;;16.90;99.90;;;;;;5029236;28;20068;-80
2022/07/10 10:52:06;;;;;;;6.28;2.10;;;17.10;99.90;;;;;;5040914;28;20034;-79
2022/07/10 10:54:55;;;;;;;9.20;2.05;;;17.30;99.90;;;;;;5046056;28;20502;-80
2022/07/10 10:57:21;;;;;;;6.93;1.80;;;17.40;99.90;;;;;;5023629;28;20041;-80
2022/07/10 10:59:49;;;;;;;10.32;1.90;;;17.40;99.90;;;;;;5032385;28;20048;-78
2022/07/10 11:02:37;;;;;;;5.47;1.88;;;17.30;99.90;;;;;;5017777;28;20069;-79
2022/07/10 11:05:12;;;;;;;8.30;1.63;;;17.30;99.90;;;;;;5040914;28;20045;-80
2022/07/10 11:07:56;;;;;;;5.80;1.70;;;17.30;99.90;;;;;;5018063;28;20120;-80
2022/07/10 11:10:30;;;;;;;9.43;1.80;;;17.50;99.90;;;;;;5040512;28;20496;-78
2022/07/10 11:13:07;;;;;;;6.63;1.85;;;17.60;99.90;;;;;;5031282;28;20033;-81
2022/07/10 11:15:37;;;;;;;7.47;1.63;;;17.70;99.90;;;;;;5043440;28;20052;-81
2022/07/10 11:18:07;;;;;;;6.10;1.60;;;17.90;99.90;;;;;;5048386;28;20047;-80
2022/07/10 11:20:41;;;;;;;7.03;1.48;;;18.10;99.90;;;;;;5024583;28;20033;-81
2022/07/10 11:23:34;;;;;;;4.90;1.50;;;18.10;99.90;;;;;;5048482;28;20041;-80
2022/07/10 11:26:38;;;;;;;3.60;1.55;;;17.90;99.90;;;;;;5033123;28;20415;-80
2022/07/10 11:29:08;;;;;;;5.95;1.60;;;17.30;99.90;;;;;;5032238;28;20060;-79
2022/07/10 11:31:46;;;;;;;4.75;1.65;;;16.70;99.90;;;;;;5047470;28;20041;-78
2022/07/10 11:34:12;;;;;;;6.35;1.73;;;16.50;99.90;;;;;;5046567;28;20041;-78
2022/07/10 11:36:39;;;;;;;9.80;1.90;;;16.50;99.90;;;;;;5046057;28;20109;-78
2022/07/10 11:39:07;;;;;;;6.38;1.65;;;16.60;99.90;;;;;;5049658;28;20068;-77
2022/07/10 11:41:33;;;;;;;3.47;1.40;;;16.70;99.90;;;;;;5025157;28;20036;-77
2022/07/10 11:44:03;;;;;;;7.45;1.85;;;16.70;99.90;;;;;;5044051;28;20465;-79
2022/07/10 11:46:32;;;;;;;4.97;1.58;;;16.70;99.90;;;;;;5029992;28;20083;-78
2022/07/10 11:48:58;;;;;;;7.28;1.70;;;16.60;99.90;;;;;;5046002;28;20124;-78
2022/07/10 11:51:25;;;;;;;8.13;2.35;;;16.50;99.90;;;;;;5044783;28;20048;-78
2022/07/10 11:54:00;;;;;;;6.57;1.80;;;16.40;99.90;;;;;;5044204;28;20045;-78
2022/07/10 11:56:28;;;;;;;6.65;1.88;;;16.40;99.90;;;;;;5044995;28;21502;-78
2022/07/10 11:58:59;;;;;;;6.07;1.63;;;16.30;99.90;;;;;;5047234;28;20380;-78
2022/07/10 12:01:26;;;;;;;8.15;2.10;;;16.20;99.90;;;;;;5035277;28;20041;-80
2022/07/10 12:04:19;;;;;;;8.13;2.15;;;16.10;99.90;;;;;;5038964;28;20534;-78
2022/07/10 12:06:46;;;;;;;5.32;2.05;;;16.10;99.90;;;;;;5032263;28;20049;-79
2022/07/10 12:09:17;;;;;;;4.70;2.35;;;16.10;99.90;;;;;;5044599;28;20045;-78
2022/07/10 12:11:57;;;;;;;7.10;2.05;;;16.00;99.90;;;;;;5039699;28;20037;-79
2022/07/10 12:14:22;;;;;;;8.27;2.30;;;15.80;99.90;;;;;;5044044;28;20042;-79
2022/07/10 12:16:52;;;;;;;6.25;1.88;;;15.80;99.90;;;;;;5043714;28;20570;-80
2022/07/10 12:19:27;;;;;;;5.18;2.30;;;15.80;99.90;;;;;;5043750;28;20525;-79
2022/07/10 12:21:53;;;;;;;4.50;2.25;;;15.90;99.90;;;;;;5044159;28;20037;-78
2022/07/10 12:24:20;;;;;;;6.90;2.55;;;16.10;99.90;;;;;;5024443;28;20033;-79
2022/07/10 12:26:46;;;;;;;7.22;2.28;;;16.30;99.90;;;;;;5044746;28;20041;-78
2022/07/10 12:29:18;;;;;;;9.85;2.42;;;16.60;99.90;;;;;;5043782;28;20045;-80
2022/07/10 12:31:45;;;;;;;6.97;2.30;;;16.70;99.90;;;;;;5027786;28;20052;-79
2022/07/10 12:34:11;;;;;;;9.60;2.67;;;16.80;99.90;;;;;;5042157;28;20043;-80
2022/07/10 12:36:44;;;;;;;8.95;2.50;;;16.90;99.90;;;;;;5045444;28;20080;-79
2022/07/10 12:39:10;;;;;;;7.45;2.53;;;16.90;99.90;;;;;;5044177;28;20040;-79
2022/07/10 12:42:03;;;;;;;9.15;2.65;;;16.80;99.90;;;;;;5045151;28;20394;-79
2022/07/10 12:44:36;;;;;;;7.45;2.30;;;16.80;99.90;;;;;;5041640;28;20176;-79
2022/07/10 12:47:13;;;;;;;6.13;2.20;;;16.70;99.90;;;;;;5052163;28;20078;-80
2022/07/10 12:49:47;;;;;;;8.13;2.50;;;16.60;99.90;;;;;;5041600;28;20036;-77
2022/07/10 12:52:26;;;;;;;7.70;2.40;;;16.50;99.90;;;;;;5042200;28;20203;-78
2022/07/10 12:55:19;;;;;;;8.32;2.15;;;16.40;99.90;;;;;;5041946;28;20041;-77
2022/07/10 12:57:59;;;;;;;6.25;2.10;;;16.50;99.90;;;;;;5047167;28;20380;-77
2022/07/10 13:00:33;;;;;;;5.00;2.20;;;16.50;99.90;;;;;;5043612;28;20032;-77